<?xml version="1.0" encoding="utf-8"?>
<gpx xmlns:xsi="http://www.w3.org/2001/XMLSchema-instance" xmlns:xsd="http://www.w3.org/2001/XMLSchema" version="1.1" creator="Shapelink.com" xmlns="http://www.topografix.com/GPX/1/1" xmlns:gpxtpx="http://www.garmin.com/xmlschemas/TrackPointExtension/v1">
  <metadata>
    <name>Gåing 6.05 km, 2012-02-26</name>
    <desc></desc>
    <author><name>Mikael Blom</name></author> 
    <time>2012-02-26T12:06:23Z</time>
  </metadata>
  <trk>
    <name>Gåing 6.05 km, 2012-02-26</name>
    <trkseg>
      <trkpt lat="59.978979" lon="17.7396885">
        <ele>35.7061</ele>
        <time>2012-02-26T12:06:23Z</time>
      </trkpt>
      <trkpt lat="59.9789982" lon="17.7395418">
        <ele>37.1481</ele>
        <time>2012-02-26T12:06:29Z</time>
      </trkpt>
      <trkpt lat="59.9789954" lon="17.7394661">
        <ele>38.1094</ele>
        <time>2012-02-26T12:06:33Z</time>
      </trkpt>
      <trkpt lat="59.978953" lon="17.7393627">
        <ele>41.474</ele>
        <time>2012-02-26T12:06:40Z</time>
      </trkpt>
      <trkpt lat="59.9788997" lon="17.7392617">
        <ele>44.358</ele>
        <time>2012-02-26T12:06:48Z</time>
      </trkpt>
      <trkpt lat="59.9788589" lon="17.7392441">
        <ele>46.7612</ele>
        <time>2012-02-26T12:06:52Z</time>
      </trkpt>
      <trkpt lat="59.9788079" lon="17.7392337">
        <ele>51.0872</ele>
        <time>2012-02-26T12:06:57Z</time>
      </trkpt>
      <trkpt lat="59.9787587" lon="17.7392232">
        <ele>52.0486</ele>
        <time>2012-02-26T12:07:01Z</time>
      </trkpt>
      <trkpt lat="59.978662" lon="17.7392063">
        <ele>53.0098</ele>
        <time>2012-02-26T12:07:10Z</time>
      </trkpt>
      <trkpt lat="59.9785792" lon="17.7391937">
        <ele>53.4905</ele>
        <time>2012-02-26T12:07:17Z</time>
      </trkpt>
      <trkpt lat="59.9784651" lon="17.7391942">
        <ele>50.126</ele>
        <time>2012-02-26T12:07:24Z</time>
      </trkpt>
      <trkpt lat="59.9783679" lon="17.7391999">
        <ele>49.1646</ele>
        <time>2012-02-26T12:07:30Z</time>
      </trkpt>
      <trkpt lat="59.9782739" lon="17.7392122">
        <ele>45.7999</ele>
        <time>2012-02-26T12:07:36Z</time>
      </trkpt>
      <trkpt lat="59.9782524" lon="17.7391746">
        <ele>49.6453</ele>
        <time>2012-02-26T12:07:40Z</time>
      </trkpt>
      <trkpt lat="59.9781571" lon="17.7391606">
        <ele>50.126</ele>
        <time>2012-02-26T12:07:47Z</time>
      </trkpt>
      <trkpt lat="59.9781473" lon="17.7391523">
        <ele>50.126</ele>
        <time>2012-02-26T12:07:48Z</time>
      </trkpt>
      <trkpt lat="59.9780042" lon="17.7391316">
        <ele>42.4354</ele>
        <time>2012-02-26T12:07:56Z</time>
      </trkpt>
      <trkpt lat="59.9779097" lon="17.7390866">
        <ele>39.5513</ele>
        <time>2012-02-26T12:08:02Z</time>
      </trkpt>
      <trkpt lat="59.9778251" lon="17.7390544">
        <ele>39.0707</ele>
        <time>2012-02-26T12:08:08Z</time>
      </trkpt>
      <trkpt lat="59.9776937" lon="17.7390177">
        <ele>38.1094</ele>
        <time>2012-02-26T12:08:17Z</time>
      </trkpt>
      <trkpt lat="59.9776699" lon="17.7390042">
        <ele>38.1094</ele>
        <time>2012-02-26T12:08:19Z</time>
      </trkpt>
      <trkpt lat="59.977572" lon="17.738999">
        <ele>37.1481</ele>
        <time>2012-02-26T12:08:26Z</time>
      </trkpt>
      <trkpt lat="59.9774461" lon="17.7390345">
        <ele>34.2642</ele>
        <time>2012-02-26T12:08:35Z</time>
      </trkpt>
      <trkpt lat="59.977382" lon="17.7390786">
        <ele>33.3029</ele>
        <time>2012-02-26T12:08:40Z</time>
      </trkpt>
      <trkpt lat="59.9772907" lon="17.7391435">
        <ele>30.8995</ele>
        <time>2012-02-26T12:08:48Z</time>
      </trkpt>
      <trkpt lat="59.9772773" lon="17.7391487">
        <ele>30.4188</ele>
        <time>2012-02-26T12:08:49Z</time>
      </trkpt>
      <trkpt lat="59.9772162" lon="17.739149">
        <ele>28.0155</ele>
        <time>2012-02-26T12:08:55Z</time>
      </trkpt>
      <trkpt lat="59.9771532" lon="17.7391963">
        <ele>27.5349</ele>
        <time>2012-02-26T12:09:00Z</time>
      </trkpt>
      <trkpt lat="59.9770593" lon="17.7392673">
        <ele>28.9769</ele>
        <time>2012-02-26T12:09:06Z</time>
      </trkpt>
      <trkpt lat="59.9769458" lon="17.739344">
        <ele>29.4575</ele>
        <time>2012-02-26T12:09:13Z</time>
      </trkpt>
      <trkpt lat="59.9769169" lon="17.7393573">
        <ele>29.4575</ele>
        <time>2012-02-26T12:09:15Z</time>
      </trkpt>
      <trkpt lat="59.9768001" lon="17.7393792">
        <ele>29.4575</ele>
        <time>2012-02-26T12:09:22Z</time>
      </trkpt>
      <trkpt lat="59.9767103" lon="17.7394123">
        <ele>28.9769</ele>
        <time>2012-02-26T12:09:28Z</time>
      </trkpt>
      <trkpt lat="59.9766294" lon="17.7395098">
        <ele>26.0929</ele>
        <time>2012-02-26T12:09:34Z</time>
      </trkpt>
      <trkpt lat="59.976518" lon="17.7396365">
        <ele>23.209</ele>
        <time>2012-02-26T12:09:42Z</time>
      </trkpt>
      <trkpt lat="59.9764497" lon="17.7397443">
        <ele>22.2476</ele>
        <time>2012-02-26T12:09:47Z</time>
      </trkpt>
      <trkpt lat="59.9764246" lon="17.7397792">
        <ele>22.7283</ele>
        <time>2012-02-26T12:09:49Z</time>
      </trkpt>
      <trkpt lat="59.9763876" lon="17.7398463">
        <ele>22.7283</ele>
        <time>2012-02-26T12:09:53Z</time>
      </trkpt>
      <trkpt lat="59.9762933" lon="17.7400762">
        <ele>24.651</ele>
        <time>2012-02-26T12:10:04Z</time>
      </trkpt>
      <trkpt lat="59.9762466" lon="17.7402435">
        <ele>25.6123</ele>
        <time>2012-02-26T12:10:11Z</time>
      </trkpt>
      <trkpt lat="59.9761787" lon="17.7404552">
        <ele>27.0543</ele>
        <time>2012-02-26T12:10:20Z</time>
      </trkpt>
      <trkpt lat="59.976129" lon="17.7406092">
        <ele>27.5349</ele>
        <time>2012-02-26T12:10:27Z</time>
      </trkpt>
      <trkpt lat="59.9760555" lon="17.7408263">
        <ele>28.4962</ele>
        <time>2012-02-26T12:10:36Z</time>
      </trkpt>
      <trkpt lat="59.9760074" lon="17.7409882">
        <ele>29.4575</ele>
        <time>2012-02-26T12:10:43Z</time>
      </trkpt>
      <trkpt lat="59.9759654" lon="17.7411643">
        <ele>31.8607</ele>
        <time>2012-02-26T12:10:50Z</time>
      </trkpt>
      <trkpt lat="59.9759161" lon="17.7413626">
        <ele>32.3416</ele>
        <time>2012-02-26T12:10:58Z</time>
      </trkpt>
      <trkpt lat="59.9758689" lon="17.7415487">
        <ele>32.8223</ele>
        <time>2012-02-26T12:11:05Z</time>
      </trkpt>
      <trkpt lat="59.9758182" lon="17.7417642">
        <ele>32.3416</ele>
        <time>2012-02-26T12:11:13Z</time>
      </trkpt>
      <trkpt lat="59.9757509" lon="17.7420796">
        <ele>32.8223</ele>
        <time>2012-02-26T12:11:24Z</time>
      </trkpt>
      <trkpt lat="59.9756902" lon="17.7423277">
        <ele>32.8223</ele>
        <time>2012-02-26T12:11:33Z</time>
      </trkpt>
      <trkpt lat="59.9756494" lon="17.7424927">
        <ele>32.8223</ele>
        <time>2012-02-26T12:11:39Z</time>
      </trkpt>
      <trkpt lat="59.9756219" lon="17.7426018">
        <ele>32.8223</ele>
        <time>2012-02-26T12:11:44Z</time>
      </trkpt>
      <trkpt lat="59.9755704" lon="17.7427707">
        <ele>33.7834</ele>
        <time>2012-02-26T12:11:50Z</time>
      </trkpt>
      <trkpt lat="59.9755206" lon="17.7429481">
        <ele>34.7449</ele>
        <time>2012-02-26T12:11:56Z</time>
      </trkpt>
      <trkpt lat="59.975455" lon="17.7431731">
        <ele>33.7834</ele>
        <time>2012-02-26T12:12:04Z</time>
      </trkpt>
      <trkpt lat="59.9754037" lon="17.743421">
        <ele>34.7449</ele>
        <time>2012-02-26T12:12:13Z</time>
      </trkpt>
      <trkpt lat="59.9753644" lon="17.7436166">
        <ele>35.2255</ele>
        <time>2012-02-26T12:12:20Z</time>
      </trkpt>
      <trkpt lat="59.9753205" lon="17.743859">
        <ele>36.1868</ele>
        <time>2012-02-26T12:12:29Z</time>
      </trkpt>
      <trkpt lat="59.9752687" lon="17.7440828">
        <ele>34.7449</ele>
        <time>2012-02-26T12:12:37Z</time>
      </trkpt>
      <trkpt lat="59.9752437" lon="17.7442343">
        <ele>34.7449</ele>
        <time>2012-02-26T12:12:43Z</time>
      </trkpt>
      <trkpt lat="59.9752065" lon="17.7444135">
        <ele>34.2642</ele>
        <time>2012-02-26T12:12:50Z</time>
      </trkpt>
      <trkpt lat="59.9751598" lon="17.7446366">
        <ele>31.8607</ele>
        <time>2012-02-26T12:12:58Z</time>
      </trkpt>
      <trkpt lat="59.9751057" lon="17.7448324">
        <ele>31.8607</ele>
        <time>2012-02-26T12:13:05Z</time>
      </trkpt>
      <trkpt lat="59.9750588" lon="17.7449747">
        <ele>31.3801</ele>
        <time>2012-02-26T12:13:11Z</time>
      </trkpt>
      <trkpt lat="59.9749902" lon="17.7451888">
        <ele>31.3801</ele>
        <time>2012-02-26T12:13:20Z</time>
      </trkpt>
      <trkpt lat="59.9749364" lon="17.7453441">
        <ele>31.8607</ele>
        <time>2012-02-26T12:13:26Z</time>
      </trkpt>
      <trkpt lat="59.9748786" lon="17.7455103">
        <ele>33.3029</ele>
        <time>2012-02-26T12:13:32Z</time>
      </trkpt>
      <trkpt lat="59.974822" lon="17.7456495">
        <ele>32.8223</ele>
        <time>2012-02-26T12:13:38Z</time>
      </trkpt>
      <trkpt lat="59.97476" lon="17.7457893">
        <ele>32.8223</ele>
        <time>2012-02-26T12:13:44Z</time>
      </trkpt>
      <trkpt lat="59.9746894" lon="17.7459413">
        <ele>33.3029</ele>
        <time>2012-02-26T12:13:50Z</time>
      </trkpt>
      <trkpt lat="59.9746056" lon="17.7460646">
        <ele>33.3029</ele>
        <time>2012-02-26T12:13:56Z</time>
      </trkpt>
      <trkpt lat="59.9745525" lon="17.7461753">
        <ele>31.8607</ele>
        <time>2012-02-26T12:14:00Z</time>
      </trkpt>
      <trkpt lat="59.9744699" lon="17.7462695">
        <ele>28.4962</ele>
        <time>2012-02-26T12:14:05Z</time>
      </trkpt>
      <trkpt lat="59.9743688" lon="17.7463698">
        <ele>26.0929</ele>
        <time>2012-02-26T12:14:12Z</time>
      </trkpt>
      <trkpt lat="59.9742784" lon="17.7464885">
        <ele>25.1317</ele>
        <time>2012-02-26T12:14:19Z</time>
      </trkpt>
      <trkpt lat="59.9742039" lon="17.746582">
        <ele>24.1703</ele>
        <time>2012-02-26T12:14:25Z</time>
      </trkpt>
      <trkpt lat="59.9741062" lon="17.7467161">
        <ele>22.7283</ele>
        <time>2012-02-26T12:14:33Z</time>
      </trkpt>
      <trkpt lat="59.9740386" lon="17.7468048">
        <ele>23.209</ele>
        <time>2012-02-26T12:14:39Z</time>
      </trkpt>
      <trkpt lat="59.9739756" lon="17.7469007">
        <ele>23.209</ele>
        <time>2012-02-26T12:14:46Z</time>
      </trkpt>
      <trkpt lat="59.9739544" lon="17.746924">
        <ele>23.6896</ele>
        <time>2012-02-26T12:14:48Z</time>
      </trkpt>
      <trkpt lat="59.9738892" lon="17.7470054">
        <ele>26.0929</ele>
        <time>2012-02-26T12:14:54Z</time>
      </trkpt>
      <trkpt lat="59.9738765" lon="17.7470225">
        <ele>26.5736</ele>
        <time>2012-02-26T12:14:55Z</time>
      </trkpt>
      <trkpt lat="59.9738036" lon="17.7470986">
        <ele>27.0543</ele>
        <time>2012-02-26T12:15:02Z</time>
      </trkpt>
      <trkpt lat="59.9737437" lon="17.7471508">
        <ele>26.5736</ele>
        <time>2012-02-26T12:15:07Z</time>
      </trkpt>
      <trkpt lat="59.9736843" lon="17.7472338">
        <ele>25.6123</ele>
        <time>2012-02-26T12:15:12Z</time>
      </trkpt>
      <trkpt lat="59.9736411" lon="17.7472647">
        <ele>25.1317</ele>
        <time>2012-02-26T12:15:15Z</time>
      </trkpt>
      <trkpt lat="59.9735726" lon="17.7473405">
        <ele>24.651</ele>
        <time>2012-02-26T12:15:20Z</time>
      </trkpt>
      <trkpt lat="59.9734779" lon="17.7474409">
        <ele>25.6123</ele>
        <time>2012-02-26T12:15:27Z</time>
      </trkpt>
      <trkpt lat="59.9734009" lon="17.7475295">
        <ele>25.6123</ele>
        <time>2012-02-26T12:15:33Z</time>
      </trkpt>
      <trkpt lat="59.9733068" lon="17.7476449">
        <ele>26.0929</ele>
        <time>2012-02-26T12:15:40Z</time>
      </trkpt>
      <trkpt lat="59.9732328" lon="17.7477285">
        <ele>26.0929</ele>
        <time>2012-02-26T12:15:46Z</time>
      </trkpt>
      <trkpt lat="59.9731521" lon="17.7478449">
        <ele>28.4962</ele>
        <time>2012-02-26T12:15:52Z</time>
      </trkpt>
      <trkpt lat="59.973052" lon="17.7479581">
        <ele>28.9769</ele>
        <time>2012-02-26T12:16:00Z</time>
      </trkpt>
      <trkpt lat="59.9729511" lon="17.7481002">
        <ele>29.9381</ele>
        <time>2012-02-26T12:16:08Z</time>
      </trkpt>
      <trkpt lat="59.9728472" lon="17.7482882">
        <ele>28.9769</ele>
        <time>2012-02-26T12:16:17Z</time>
      </trkpt>
      <trkpt lat="59.9727561" lon="17.7484599">
        <ele>30.8995</ele>
        <time>2012-02-26T12:16:24Z</time>
      </trkpt>
      <trkpt lat="59.9726914" lon="17.7486017">
        <ele>31.8607</ele>
        <time>2012-02-26T12:16:30Z</time>
      </trkpt>
      <trkpt lat="59.9726094" lon="17.7487262">
        <ele>32.8223</ele>
        <time>2012-02-26T12:16:37Z</time>
      </trkpt>
      <trkpt lat="59.9725598" lon="17.7489124">
        <ele>33.7834</ele>
        <time>2012-02-26T12:16:44Z</time>
      </trkpt>
      <trkpt lat="59.972491" lon="17.7490846">
        <ele>34.2642</ele>
        <time>2012-02-26T12:16:51Z</time>
      </trkpt>
      <trkpt lat="59.9724014" lon="17.7492686">
        <ele>32.8223</ele>
        <time>2012-02-26T12:16:59Z</time>
      </trkpt>
      <trkpt lat="59.9723383" lon="17.7494115">
        <ele>33.3029</ele>
        <time>2012-02-26T12:17:05Z</time>
      </trkpt>
      <trkpt lat="59.9722908" lon="17.7495695">
        <ele>33.3029</ele>
        <time>2012-02-26T12:17:12Z</time>
      </trkpt>
      <trkpt lat="59.9722501" lon="17.7496913">
        <ele>34.2642</ele>
        <time>2012-02-26T12:17:18Z</time>
      </trkpt>
      <trkpt lat="59.9722143" lon="17.7497746">
        <ele>33.7834</ele>
        <time>2012-02-26T12:17:22Z</time>
      </trkpt>
      <trkpt lat="59.9721906" lon="17.7498466">
        <ele>33.7834</ele>
        <time>2012-02-26T12:17:26Z</time>
      </trkpt>
      <trkpt lat="59.9721471" lon="17.7499072">
        <ele>33.3029</ele>
        <time>2012-02-26T12:17:30Z</time>
      </trkpt>
      <trkpt lat="59.9720741" lon="17.7500683">
        <ele>33.7834</ele>
        <time>2012-02-26T12:17:37Z</time>
      </trkpt>
      <trkpt lat="59.9720494" lon="17.7501098">
        <ele>32.3416</ele>
        <time>2012-02-26T12:17:39Z</time>
      </trkpt>
      <trkpt lat="59.9719818" lon="17.750267">
        <ele>30.8995</ele>
        <time>2012-02-26T12:17:45Z</time>
      </trkpt>
      <trkpt lat="59.9719704" lon="17.7502982">
        <ele>30.8995</ele>
        <time>2012-02-26T12:17:46Z</time>
      </trkpt>
      <trkpt lat="59.9718765" lon="17.7504991">
        <ele>29.4575</ele>
        <time>2012-02-26T12:17:53Z</time>
      </trkpt>
      <trkpt lat="59.9718217" lon="17.7505836">
        <ele>29.4575</ele>
        <time>2012-02-26T12:17:58Z</time>
      </trkpt>
      <trkpt lat="59.971777" lon="17.7506442">
        <ele>29.4575</ele>
        <time>2012-02-26T12:18:02Z</time>
      </trkpt>
      <trkpt lat="59.9717379" lon="17.75072">
        <ele>28.9769</ele>
        <time>2012-02-26T12:18:05Z</time>
      </trkpt>
      <trkpt lat="59.9716736" lon="17.7508527">
        <ele>27.5349</ele>
        <time>2012-02-26T12:18:11Z</time>
      </trkpt>
      <trkpt lat="59.9716523" lon="17.7509031">
        <ele>27.0543</ele>
        <time>2012-02-26T12:18:13Z</time>
      </trkpt>
      <trkpt lat="59.9715736" lon="17.7510576">
        <ele>25.6123</ele>
        <time>2012-02-26T12:18:19Z</time>
      </trkpt>
      <trkpt lat="59.9715093" lon="17.7511746">
        <ele>25.1317</ele>
        <time>2012-02-26T12:18:25Z</time>
      </trkpt>
      <trkpt lat="59.9714109" lon="17.7512891">
        <ele>26.0929</ele>
        <time>2012-02-26T12:18:32Z</time>
      </trkpt>
      <trkpt lat="59.971328" lon="17.7513751">
        <ele>28.0155</ele>
        <time>2012-02-26T12:18:38Z</time>
      </trkpt>
      <trkpt lat="59.9712795" lon="17.7514009">
        <ele>28.9769</ele>
        <time>2012-02-26T12:18:41Z</time>
      </trkpt>
      <trkpt lat="59.9711684" lon="17.7514857">
        <ele>31.8607</ele>
        <time>2012-02-26T12:18:49Z</time>
      </trkpt>
      <trkpt lat="59.9710731" lon="17.7515856">
        <ele>31.3801</ele>
        <time>2012-02-26T12:18:54Z</time>
      </trkpt>
      <trkpt lat="59.9709699" lon="17.7516947">
        <ele>28.9769</ele>
        <time>2012-02-26T12:19:01Z</time>
      </trkpt>
      <trkpt lat="59.9708653" lon="17.751857">
        <ele>28.0155</ele>
        <time>2012-02-26T12:19:09Z</time>
      </trkpt>
      <trkpt lat="59.9707768" lon="17.7519688">
        <ele>28.4962</ele>
        <time>2012-02-26T12:19:15Z</time>
      </trkpt>
      <trkpt lat="59.9707245" lon="17.7520733">
        <ele>28.4962</ele>
        <time>2012-02-26T12:19:20Z</time>
      </trkpt>
      <trkpt lat="59.9706733" lon="17.7521622">
        <ele>28.4962</ele>
        <time>2012-02-26T12:19:24Z</time>
      </trkpt>
      <trkpt lat="59.9706045" lon="17.7522755">
        <ele>29.4575</ele>
        <time>2012-02-26T12:19:30Z</time>
      </trkpt>
      <trkpt lat="59.9705527" lon="17.752391">
        <ele>28.4962</ele>
        <time>2012-02-26T12:19:36Z</time>
      </trkpt>
      <trkpt lat="59.9704982" lon="17.7525416">
        <ele>28.0155</ele>
        <time>2012-02-26T12:19:43Z</time>
      </trkpt>
      <trkpt lat="59.970445" lon="17.7526888">
        <ele>28.0155</ele>
        <time>2012-02-26T12:19:50Z</time>
      </trkpt>
      <trkpt lat="59.9703507" lon="17.7528968">
        <ele>28.9769</ele>
        <time>2012-02-26T12:19:59Z</time>
      </trkpt>
      <trkpt lat="59.9702812" lon="17.7531432">
        <ele>27.0543</ele>
        <time>2012-02-26T12:20:08Z</time>
      </trkpt>
      <trkpt lat="59.9702615" lon="17.7532085">
        <ele>27.5349</ele>
        <time>2012-02-26T12:20:11Z</time>
      </trkpt>
      <trkpt lat="59.9702027" lon="17.7533421">
        <ele>27.0543</ele>
        <time>2012-02-26T12:20:17Z</time>
      </trkpt>
      <trkpt lat="59.9701908" lon="17.7534007">
        <ele>27.0543</ele>
        <time>2012-02-26T12:20:19Z</time>
      </trkpt>
      <trkpt lat="59.9701028" lon="17.7536115">
        <ele>26.5736</ele>
        <time>2012-02-26T12:20:28Z</time>
      </trkpt>
      <trkpt lat="59.970017" lon="17.7538125">
        <ele>26.5736</ele>
        <time>2012-02-26T12:20:36Z</time>
      </trkpt>
      <trkpt lat="59.9699332" lon="17.7540021">
        <ele>24.1703</ele>
        <time>2012-02-26T12:20:44Z</time>
      </trkpt>
      <trkpt lat="59.9698529" lon="17.7541956">
        <ele>25.1317</ele>
        <time>2012-02-26T12:20:52Z</time>
      </trkpt>
      <trkpt lat="59.9697859" lon="17.7543612">
        <ele>25.1317</ele>
        <time>2012-02-26T12:21:00Z</time>
      </trkpt>
      <trkpt lat="59.9697804" lon="17.7543775">
        <ele>25.1317</ele>
        <time>2012-02-26T12:21:02Z</time>
      </trkpt>
      <trkpt lat="59.9697424" lon="17.7544466">
        <ele>25.6123</ele>
        <time>2012-02-26T12:21:06Z</time>
      </trkpt>
      <trkpt lat="59.9696899" lon="17.7545237">
        <ele>26.5736</ele>
        <time>2012-02-26T12:21:11Z</time>
      </trkpt>
      <trkpt lat="59.9696179" lon="17.7546852">
        <ele>28.4962</ele>
        <time>2012-02-26T12:21:19Z</time>
      </trkpt>
      <trkpt lat="59.9695446" lon="17.7548268">
        <ele>27.5349</ele>
        <time>2012-02-26T12:21:26Z</time>
      </trkpt>
      <trkpt lat="59.9694647" lon="17.7549836">
        <ele>28.0155</ele>
        <time>2012-02-26T12:21:33Z</time>
      </trkpt>
      <trkpt lat="59.9693921" lon="17.755149">
        <ele>27.0543</ele>
        <time>2012-02-26T12:21:40Z</time>
      </trkpt>
      <trkpt lat="59.969305" lon="17.7553209">
        <ele>25.6123</ele>
        <time>2012-02-26T12:21:47Z</time>
      </trkpt>
      <trkpt lat="59.969213" lon="17.7555173">
        <ele>26.5736</ele>
        <time>2012-02-26T12:21:55Z</time>
      </trkpt>
      <trkpt lat="59.9691312" lon="17.7556939">
        <ele>25.6123</ele>
        <time>2012-02-26T12:22:02Z</time>
      </trkpt>
      <trkpt lat="59.9690694" lon="17.7558422">
        <ele>25.6123</ele>
        <time>2012-02-26T12:22:08Z</time>
      </trkpt>
      <trkpt lat="59.9689981" lon="17.7559844">
        <ele>27.0543</ele>
        <time>2012-02-26T12:22:15Z</time>
      </trkpt>
      <trkpt lat="59.9689196" lon="17.756141">
        <ele>27.5349</ele>
        <time>2012-02-26T12:22:22Z</time>
      </trkpt>
      <trkpt lat="59.9688493" lon="17.7562892">
        <ele>27.5349</ele>
        <time>2012-02-26T12:22:28Z</time>
      </trkpt>
      <trkpt lat="59.9687721" lon="17.7564268">
        <ele>26.5736</ele>
        <time>2012-02-26T12:22:35Z</time>
      </trkpt>
      <trkpt lat="59.9686756" lon="17.7566045">
        <ele>28.4962</ele>
        <time>2012-02-26T12:22:43Z</time>
      </trkpt>
      <trkpt lat="59.968608" lon="17.7567361">
        <ele>27.5349</ele>
        <time>2012-02-26T12:22:50Z</time>
      </trkpt>
      <trkpt lat="59.9685263" lon="17.756851">
        <ele>26.5736</ele>
        <time>2012-02-26T12:22:57Z</time>
      </trkpt>
      <trkpt lat="59.968407" lon="17.7569908">
        <ele>26.0929</ele>
        <time>2012-02-26T12:23:05Z</time>
      </trkpt>
      <trkpt lat="59.968308" lon="17.7571634">
        <ele>25.6123</ele>
        <time>2012-02-26T12:23:13Z</time>
      </trkpt>
      <trkpt lat="59.9682401" lon="17.7572858">
        <ele>25.6123</ele>
        <time>2012-02-26T12:23:19Z</time>
      </trkpt>
      <trkpt lat="59.9681543" lon="17.7573931">
        <ele>26.0929</ele>
        <time>2012-02-26T12:23:25Z</time>
      </trkpt>
      <trkpt lat="59.9680801" lon="17.7574936">
        <ele>26.5736</ele>
        <time>2012-02-26T12:23:31Z</time>
      </trkpt>
      <trkpt lat="59.9679753" lon="17.7576147">
        <ele>25.1317</ele>
        <time>2012-02-26T12:23:39Z</time>
      </trkpt>
      <trkpt lat="59.9678895" lon="17.7577064">
        <ele>25.1317</ele>
        <time>2012-02-26T12:23:45Z</time>
      </trkpt>
      <trkpt lat="59.9678784" lon="17.7577231">
        <ele>24.651</ele>
        <time>2012-02-26T12:23:46Z</time>
      </trkpt>
      <trkpt lat="59.9677976" lon="17.7578631">
        <ele>22.2476</ele>
        <time>2012-02-26T12:23:52Z</time>
      </trkpt>
      <trkpt lat="59.9677662" lon="17.757924">
        <ele>21.767</ele>
        <time>2012-02-26T12:23:54Z</time>
      </trkpt>
      <trkpt lat="59.9676787" lon="17.7580214">
        <ele>22.2476</ele>
        <time>2012-02-26T12:24:00Z</time>
      </trkpt>
      <trkpt lat="59.9675901" lon="17.7581618">
        <ele>22.2476</ele>
        <time>2012-02-26T12:24:06Z</time>
      </trkpt>
      <trkpt lat="59.9674899" lon="17.7582193">
        <ele>21.767</ele>
        <time>2012-02-26T12:24:12Z</time>
      </trkpt>
      <trkpt lat="59.9673881" lon="17.7582929">
        <ele>21.767</ele>
        <time>2012-02-26T12:24:19Z</time>
      </trkpt>
      <trkpt lat="59.9672897" lon="17.7583687">
        <ele>23.209</ele>
        <time>2012-02-26T12:24:25Z</time>
      </trkpt>
      <trkpt lat="59.967174" lon="17.7584581">
        <ele>25.6123</ele>
        <time>2012-02-26T12:24:31Z</time>
      </trkpt>
      <trkpt lat="59.9670866" lon="17.7585366">
        <ele>25.1317</ele>
        <time>2012-02-26T12:24:37Z</time>
      </trkpt>
      <trkpt lat="59.9670187" lon="17.7585952">
        <ele>27.0543</ele>
        <time>2012-02-26T12:24:42Z</time>
      </trkpt>
      <trkpt lat="59.9669202" lon="17.7586751">
        <ele>26.5736</ele>
        <time>2012-02-26T12:24:47Z</time>
      </trkpt>
      <trkpt lat="59.9667954" lon="17.7587559">
        <ele>28.0155</ele>
        <time>2012-02-26T12:24:54Z</time>
      </trkpt>
      <trkpt lat="59.9667401" lon="17.7588206">
        <ele>26.5736</ele>
        <time>2012-02-26T12:25:00Z</time>
      </trkpt>
      <trkpt lat="59.9666399" lon="17.758918">
        <ele>27.0543</ele>
        <time>2012-02-26T12:25:08Z</time>
      </trkpt>
      <trkpt lat="59.9665711" lon="17.7589984">
        <ele>27.5349</ele>
        <time>2012-02-26T12:25:13Z</time>
      </trkpt>
      <trkpt lat="59.9665243" lon="17.7590437">
        <ele>25.1317</ele>
        <time>2012-02-26T12:25:19Z</time>
      </trkpt>
      <trkpt lat="59.9664443" lon="17.7591563">
        <ele>25.6123</ele>
        <time>2012-02-26T12:25:27Z</time>
      </trkpt>
      <trkpt lat="59.9663692" lon="17.7592546">
        <ele>25.1317</ele>
        <time>2012-02-26T12:25:33Z</time>
      </trkpt>
      <trkpt lat="59.9662899" lon="17.7594038">
        <ele>23.209</ele>
        <time>2012-02-26T12:25:40Z</time>
      </trkpt>
      <trkpt lat="59.9662211" lon="17.7594872">
        <ele>22.2476</ele>
        <time>2012-02-26T12:25:45Z</time>
      </trkpt>
      <trkpt lat="59.9661141" lon="17.7596722">
        <ele>20.325</ele>
        <time>2012-02-26T12:25:52Z</time>
      </trkpt>
      <trkpt lat="59.9660666" lon="17.7597994">
        <ele>21.2864</ele>
        <time>2012-02-26T12:25:58Z</time>
      </trkpt>
      <trkpt lat="59.9660194" lon="17.759916">
        <ele>20.8057</ele>
        <time>2012-02-26T12:26:03Z</time>
      </trkpt>
      <trkpt lat="59.9659527" lon="17.760069">
        <ele>19.3638</ele>
        <time>2012-02-26T12:26:09Z</time>
      </trkpt>
      <trkpt lat="59.9658647" lon="17.7601866">
        <ele>21.2864</ele>
        <time>2012-02-26T12:26:15Z</time>
      </trkpt>
      <trkpt lat="59.9657784" lon="17.7602597">
        <ele>23.6896</ele>
        <time>2012-02-26T12:26:20Z</time>
      </trkpt>
      <trkpt lat="59.9657242" lon="17.7603397">
        <ele>28.4962</ele>
        <time>2012-02-26T12:26:26Z</time>
      </trkpt>
      <trkpt lat="59.9656646" lon="17.7605021">
        <ele>28.9769</ele>
        <time>2012-02-26T12:26:34Z</time>
      </trkpt>
      <trkpt lat="59.965657" lon="17.7605258">
        <ele>28.9769</ele>
        <time>2012-02-26T12:26:35Z</time>
      </trkpt>
      <trkpt lat="59.9655604" lon="17.7606374">
        <ele>28.9769</ele>
        <time>2012-02-26T12:26:42Z</time>
      </trkpt>
      <trkpt lat="59.9655086" lon="17.7607234">
        <ele>28.0155</ele>
        <time>2012-02-26T12:26:46Z</time>
      </trkpt>
      <trkpt lat="59.965437" lon="17.7608538">
        <ele>27.5349</ele>
        <time>2012-02-26T12:26:53Z</time>
      </trkpt>
      <trkpt lat="59.9653562" lon="17.7610236">
        <ele>28.4962</ele>
        <time>2012-02-26T12:27:01Z</time>
      </trkpt>
      <trkpt lat="59.9653078" lon="17.7611785">
        <ele>29.4575</ele>
        <time>2012-02-26T12:27:08Z</time>
      </trkpt>
      <trkpt lat="59.9652502" lon="17.7613242">
        <ele>30.4188</ele>
        <time>2012-02-26T12:27:15Z</time>
      </trkpt>
      <trkpt lat="59.9651861" lon="17.7615547">
        <ele>30.4188</ele>
        <time>2012-02-26T12:27:25Z</time>
      </trkpt>
      <trkpt lat="59.9651087" lon="17.7617599">
        <ele>26.0929</ele>
        <time>2012-02-26T12:27:32Z</time>
      </trkpt>
      <trkpt lat="59.9650287" lon="17.7619203">
        <ele>24.651</ele>
        <time>2012-02-26T12:27:38Z</time>
      </trkpt>
      <trkpt lat="59.9649554" lon="17.7621038">
        <ele>22.2476</ele>
        <time>2012-02-26T12:27:44Z</time>
      </trkpt>
      <trkpt lat="59.9648802" lon="17.7623555">
        <ele>25.1317</ele>
        <time>2012-02-26T12:27:52Z</time>
      </trkpt>
      <trkpt lat="59.9648209" lon="17.7625441">
        <ele>25.6123</ele>
        <time>2012-02-26T12:27:59Z</time>
      </trkpt>
      <trkpt lat="59.9647671" lon="17.7626869">
        <ele>28.4962</ele>
        <time>2012-02-26T12:28:04Z</time>
      </trkpt>
      <trkpt lat="59.9646846" lon="17.7628806">
        <ele>28.9769</ele>
        <time>2012-02-26T12:28:13Z</time>
      </trkpt>
      <trkpt lat="59.9646386" lon="17.7630951">
        <ele>29.9381</ele>
        <time>2012-02-26T12:28:20Z</time>
      </trkpt>
      <trkpt lat="59.9646033" lon="17.7632759">
        <ele>31.3801</ele>
        <time>2012-02-26T12:28:26Z</time>
      </trkpt>
      <trkpt lat="59.964559" lon="17.7634278">
        <ele>30.4188</ele>
        <time>2012-02-26T12:28:31Z</time>
      </trkpt>
      <trkpt lat="59.9645048" lon="17.7636112">
        <ele>30.4188</ele>
        <time>2012-02-26T12:28:38Z</time>
      </trkpt>
      <trkpt lat="59.9644857" lon="17.7636484">
        <ele>32.3416</ele>
        <time>2012-02-26T12:28:40Z</time>
      </trkpt>
      <trkpt lat="59.9644712" lon="17.7637251">
        <ele>33.3029</ele>
        <time>2012-02-26T12:28:43Z</time>
      </trkpt>
      <trkpt lat="59.964453" lon="17.7637851">
        <ele>32.8223</ele>
        <time>2012-02-26T12:28:45Z</time>
      </trkpt>
      <trkpt lat="59.9644343" lon="17.7636565">
        <ele>31.3801</ele>
        <time>2012-02-26T12:28:49Z</time>
      </trkpt>
      <trkpt lat="59.9644488" lon="17.763609">
        <ele>31.3801</ele>
        <time>2012-02-26T12:28:50Z</time>
      </trkpt>
      <trkpt lat="59.9645146" lon="17.7633625">
        <ele>31.3801</ele>
        <time>2012-02-26T12:28:55Z</time>
      </trkpt>
      <trkpt lat="59.9645673" lon="17.7631325">
        <ele>30.8995</ele>
        <time>2012-02-26T12:29:00Z</time>
      </trkpt>
      <trkpt lat="59.9646478" lon="17.7628775">
        <ele>29.9381</ele>
        <time>2012-02-26T12:29:06Z</time>
      </trkpt>
      <trkpt lat="59.9647302" lon="17.7626595">
        <ele>28.0155</ele>
        <time>2012-02-26T12:29:11Z</time>
      </trkpt>
      <trkpt lat="59.9647929" lon="17.7625009">
        <ele>26.5736</ele>
        <time>2012-02-26T12:29:15Z</time>
      </trkpt>
      <trkpt lat="59.9648543" lon="17.7622994">
        <ele>26.0929</ele>
        <time>2012-02-26T12:29:20Z</time>
      </trkpt>
      <trkpt lat="59.9649385" lon="17.7620945">
        <ele>26.5736</ele>
        <time>2012-02-26T12:29:25Z</time>
      </trkpt>
      <trkpt lat="59.9650244" lon="17.7619117">
        <ele>27.0543</ele>
        <time>2012-02-26T12:29:30Z</time>
      </trkpt>
      <trkpt lat="59.9651301" lon="17.7616584">
        <ele>27.5349</ele>
        <time>2012-02-26T12:29:36Z</time>
      </trkpt>
      <trkpt lat="59.9652114" lon="17.7614698">
        <ele>26.5736</ele>
        <time>2012-02-26T12:29:41Z</time>
      </trkpt>
      <trkpt lat="59.9652916" lon="17.7612469">
        <ele>27.5349</ele>
        <time>2012-02-26T12:29:46Z</time>
      </trkpt>
      <trkpt lat="59.9653808" lon="17.7610098">
        <ele>27.0543</ele>
        <time>2012-02-26T12:29:52Z</time>
      </trkpt>
      <trkpt lat="59.9654646" lon="17.7608208">
        <ele>27.5349</ele>
        <time>2012-02-26T12:29:57Z</time>
      </trkpt>
      <trkpt lat="59.9655542" lon="17.7606652">
        <ele>27.0543</ele>
        <time>2012-02-26T12:30:02Z</time>
      </trkpt>
      <trkpt lat="59.9656674" lon="17.7604808">
        <ele>28.0155</ele>
        <time>2012-02-26T12:30:08Z</time>
      </trkpt>
      <trkpt lat="59.9657621" lon="17.7603191">
        <ele>28.0155</ele>
        <time>2012-02-26T12:30:13Z</time>
      </trkpt>
      <trkpt lat="59.9658735" lon="17.7601054">
        <ele>29.4575</ele>
        <time>2012-02-26T12:30:19Z</time>
      </trkpt>
      <trkpt lat="59.9659656" lon="17.7599474">
        <ele>30.4188</ele>
        <time>2012-02-26T12:30:24Z</time>
      </trkpt>
      <trkpt lat="59.9660514" lon="17.7597426">
        <ele>32.8223</ele>
        <time>2012-02-26T12:30:29Z</time>
      </trkpt>
      <trkpt lat="59.966121" lon="17.7596116">
        <ele>33.3029</ele>
        <time>2012-02-26T12:30:33Z</time>
      </trkpt>
      <trkpt lat="59.9661453" lon="17.7596075">
        <ele>31.8607</ele>
        <time>2012-02-26T12:30:35Z</time>
      </trkpt>
      <trkpt lat="59.966153" lon="17.7595874">
        <ele>31.3801</ele>
        <time>2012-02-26T12:30:36Z</time>
      </trkpt>
      <trkpt lat="59.9662473" lon="17.7594816">
        <ele>28.9769</ele>
        <time>2012-02-26T12:30:44Z</time>
      </trkpt>
      <trkpt lat="59.9662604" lon="17.7594729">
        <ele>28.4962</ele>
        <time>2012-02-26T12:30:45Z</time>
      </trkpt>
      <trkpt lat="59.9663623" lon="17.7593381">
        <ele>26.0929</ele>
        <time>2012-02-26T12:30:54Z</time>
      </trkpt>
      <trkpt lat="59.9664378" lon="17.7592667">
        <ele>23.209</ele>
        <time>2012-02-26T12:31:00Z</time>
      </trkpt>
      <trkpt lat="59.9665115" lon="17.759134">
        <ele>23.6896</ele>
        <time>2012-02-26T12:31:07Z</time>
      </trkpt>
      <trkpt lat="59.9666111" lon="17.7589992">
        <ele>25.1317</ele>
        <time>2012-02-26T12:31:15Z</time>
      </trkpt>
      <trkpt lat="59.966725" lon="17.7588824">
        <ele>24.651</ele>
        <time>2012-02-26T12:31:24Z</time>
      </trkpt>
      <trkpt lat="59.9668566" lon="17.7587625">
        <ele>23.6896</ele>
        <time>2012-02-26T12:31:34Z</time>
      </trkpt>
      <trkpt lat="59.967011" lon="17.7586445">
        <ele>22.7283</ele>
        <time>2012-02-26T12:31:45Z</time>
      </trkpt>
      <trkpt lat="59.9670926" lon="17.7585596">
        <ele>22.7283</ele>
        <time>2012-02-26T12:31:51Z</time>
      </trkpt>
      <trkpt lat="59.9672258" lon="17.758399">
        <ele>25.6123</ele>
        <time>2012-02-26T12:32:01Z</time>
      </trkpt>
      <trkpt lat="59.9673586" lon="17.7582839">
        <ele>26.0929</ele>
        <time>2012-02-26T12:32:11Z</time>
      </trkpt>
      <trkpt lat="59.9674693" lon="17.7581705">
        <ele>27.0543</ele>
        <time>2012-02-26T12:32:19Z</time>
      </trkpt>
      <trkpt lat="59.967603" lon="17.7580581">
        <ele>28.4962</ele>
        <time>2012-02-26T12:32:28Z</time>
      </trkpt>
      <trkpt lat="59.9677558" lon="17.7579078">
        <ele>28.9769</ele>
        <time>2012-02-26T12:32:39Z</time>
      </trkpt>
      <trkpt lat="59.9678915" lon="17.7576862">
        <ele>33.3029</ele>
        <time>2012-02-26T12:32:49Z</time>
      </trkpt>
      <trkpt lat="59.9680009" lon="17.7575282">
        <ele>35.7061</ele>
        <time>2012-02-26T12:32:57Z</time>
      </trkpt>
      <trkpt lat="59.9681253" lon="17.7573664">
        <ele>37.1481</ele>
        <time>2012-02-26T12:33:06Z</time>
      </trkpt>
      <trkpt lat="59.9682279" lon="17.757232">
        <ele>36.6675</ele>
        <time>2012-02-26T12:33:14Z</time>
      </trkpt>
      <trkpt lat="59.9683086" lon="17.7571398">
        <ele>36.1868</ele>
        <time>2012-02-26T12:33:20Z</time>
      </trkpt>
      <trkpt lat="59.9684073" lon="17.7569867">
        <ele>36.6675</ele>
        <time>2012-02-26T12:33:28Z</time>
      </trkpt>
      <trkpt lat="59.9684801" lon="17.756864">
        <ele>37.1481</ele>
        <time>2012-02-26T12:33:34Z</time>
      </trkpt>
      <trkpt lat="59.9685758" lon="17.756693">
        <ele>37.6287</ele>
        <time>2012-02-26T12:33:42Z</time>
      </trkpt>
      <trkpt lat="59.9686649" lon="17.7565606">
        <ele>37.6287</ele>
        <time>2012-02-26T12:33:49Z</time>
      </trkpt>
      <trkpt lat="59.9687421" lon="17.7564191">
        <ele>36.6675</ele>
        <time>2012-02-26T12:33:56Z</time>
      </trkpt>
      <trkpt lat="59.9688416" lon="17.7562245">
        <ele>34.7449</ele>
        <time>2012-02-26T12:34:05Z</time>
      </trkpt>
      <trkpt lat="59.9689489" lon="17.7560073">
        <ele>33.7834</ele>
        <time>2012-02-26T12:34:15Z</time>
      </trkpt>
      <trkpt lat="59.9690435" lon="17.7558193">
        <ele>31.3801</ele>
        <time>2012-02-26T12:34:24Z</time>
      </trkpt>
      <trkpt lat="59.9690976" lon="17.7557189">
        <ele>30.4188</ele>
        <time>2012-02-26T12:34:29Z</time>
      </trkpt>
      <trkpt lat="59.9691607" lon="17.7556054">
        <ele>29.9381</ele>
        <time>2012-02-26T12:34:34Z</time>
      </trkpt>
      <trkpt lat="59.9692161" lon="17.7554835">
        <ele>30.4188</ele>
        <time>2012-02-26T12:34:39Z</time>
      </trkpt>
      <trkpt lat="59.9692444" lon="17.755413">
        <ele>30.8995</ele>
        <time>2012-02-26T12:34:42Z</time>
      </trkpt>
      <trkpt lat="59.9693073" lon="17.7552338">
        <ele>32.3416</ele>
        <time>2012-02-26T12:34:49Z</time>
      </trkpt>
      <trkpt lat="59.9693612" lon="17.7550815">
        <ele>34.7449</ele>
        <time>2012-02-26T12:34:55Z</time>
      </trkpt>
      <trkpt lat="59.9694094" lon="17.7549734">
        <ele>34.7449</ele>
        <time>2012-02-26T12:35:00Z</time>
      </trkpt>
      <trkpt lat="59.9694802" lon="17.7548319">
        <ele>34.7449</ele>
        <time>2012-02-26T12:35:07Z</time>
      </trkpt>
      <trkpt lat="59.9695777" lon="17.7546113">
        <ele>33.3029</ele>
        <time>2012-02-26T12:35:17Z</time>
      </trkpt>
      <trkpt lat="59.9696521" lon="17.7544554">
        <ele>32.8223</ele>
        <time>2012-02-26T12:35:24Z</time>
      </trkpt>
      <trkpt lat="59.9697213" lon="17.7543182">
        <ele>33.3029</ele>
        <time>2012-02-26T12:35:30Z</time>
      </trkpt>
      <trkpt lat="59.9697901" lon="17.7541312">
        <ele>34.2642</ele>
        <time>2012-02-26T12:35:37Z</time>
      </trkpt>
      <trkpt lat="59.9698542" lon="17.7540218">
        <ele>34.2642</ele>
        <time>2012-02-26T12:35:42Z</time>
      </trkpt>
      <trkpt lat="59.9698895" lon="17.7539641">
        <ele>32.8223</ele>
        <time>2012-02-26T12:35:45Z</time>
      </trkpt>
      <trkpt lat="59.9699522" lon="17.7538747">
        <ele>31.8607</ele>
        <time>2012-02-26T12:35:50Z</time>
      </trkpt>
      <trkpt lat="59.9699564" lon="17.7537436">
        <ele>30.4188</ele>
        <time>2012-02-26T12:35:53Z</time>
      </trkpt>
      <trkpt lat="59.9699798" lon="17.7537028">
        <ele>29.4575</ele>
        <time>2012-02-26T12:35:55Z</time>
      </trkpt>
      <trkpt lat="59.9700548" lon="17.7535544">
        <ele>28.9769</ele>
        <time>2012-02-26T12:36:02Z</time>
      </trkpt>
      <trkpt lat="59.9701631" lon="17.753309">
        <ele>28.9769</ele>
        <time>2012-02-26T12:36:13Z</time>
      </trkpt>
      <trkpt lat="59.9702361" lon="17.7531154">
        <ele>28.4962</ele>
        <time>2012-02-26T12:36:21Z</time>
      </trkpt>
      <trkpt lat="59.9703231" lon="17.7528588">
        <ele>28.9769</ele>
        <time>2012-02-26T12:36:31Z</time>
      </trkpt>
      <trkpt lat="59.9703956" lon="17.7526563">
        <ele>29.4575</ele>
        <time>2012-02-26T12:36:39Z</time>
      </trkpt>
      <trkpt lat="59.9704722" lon="17.7524703">
        <ele>29.4575</ele>
        <time>2012-02-26T12:36:47Z</time>
      </trkpt>
      <trkpt lat="59.9705527" lon="17.7522869">
        <ele>29.4575</ele>
        <time>2012-02-26T12:36:55Z</time>
      </trkpt>
      <trkpt lat="59.970646" lon="17.7520824">
        <ele>30.4188</ele>
        <time>2012-02-26T12:37:04Z</time>
      </trkpt>
      <trkpt lat="59.9707304" lon="17.7519133">
        <ele>31.3801</ele>
        <time>2012-02-26T12:37:12Z</time>
      </trkpt>
      <trkpt lat="59.9708275" lon="17.7517731">
        <ele>31.3801</ele>
        <time>2012-02-26T12:37:20Z</time>
      </trkpt>
      <trkpt lat="59.9709174" lon="17.7516714">
        <ele>32.3416</ele>
        <time>2012-02-26T12:37:27Z</time>
      </trkpt>
      <trkpt lat="59.9709953" lon="17.7515509">
        <ele>32.3416</ele>
        <time>2012-02-26T12:37:34Z</time>
      </trkpt>
      <trkpt lat="59.9711015" lon="17.751438">
        <ele>32.8223</ele>
        <time>2012-02-26T12:37:42Z</time>
      </trkpt>
      <trkpt lat="59.9711738" lon="17.7513348">
        <ele>33.7834</ele>
        <time>2012-02-26T12:37:48Z</time>
      </trkpt>
      <trkpt lat="59.9712877" lon="17.7512269">
        <ele>33.3029</ele>
        <time>2012-02-26T12:37:56Z</time>
      </trkpt>
      <trkpt lat="59.9714116" lon="17.7510721">
        <ele>35.7061</ele>
        <time>2012-02-26T12:38:05Z</time>
      </trkpt>
      <trkpt lat="59.9714833" lon="17.7509691">
        <ele>36.6675</ele>
        <time>2012-02-26T12:38:10Z</time>
      </trkpt>
      <trkpt lat="59.9715844" lon="17.7508391">
        <ele>35.2255</ele>
        <time>2012-02-26T12:38:18Z</time>
      </trkpt>
      <trkpt lat="59.9717029" lon="17.7507172">
        <ele>33.3029</ele>
        <time>2012-02-26T12:38:27Z</time>
      </trkpt>
      <trkpt lat="59.9717839" lon="17.7505775">
        <ele>33.3029</ele>
        <time>2012-02-26T12:38:34Z</time>
      </trkpt>
      <trkpt lat="59.9718884" lon="17.7504019">
        <ele>32.8223</ele>
        <time>2012-02-26T12:38:43Z</time>
      </trkpt>
      <trkpt lat="59.9719964" lon="17.750231">
        <ele>31.8607</ele>
        <time>2012-02-26T12:38:52Z</time>
      </trkpt>
      <trkpt lat="59.9720651" lon="17.7500124">
        <ele>33.7834</ele>
        <time>2012-02-26T12:39:00Z</time>
      </trkpt>
      <trkpt lat="59.9721485" lon="17.749786">
        <ele>36.1868</ele>
        <time>2012-02-26T12:39:09Z</time>
      </trkpt>
      <trkpt lat="59.9722184" lon="17.7496009">
        <ele>38.5901</ele>
        <time>2012-02-26T12:39:16Z</time>
      </trkpt>
      <trkpt lat="59.9722833" lon="17.7494649">
        <ele>38.5901</ele>
        <time>2012-02-26T12:39:22Z</time>
      </trkpt>
      <trkpt lat="59.9723403" lon="17.7493054">
        <ele>38.5901</ele>
        <time>2012-02-26T12:39:28Z</time>
      </trkpt>
      <trkpt lat="59.9723838" lon="17.7492183">
        <ele>38.5901</ele>
        <time>2012-02-26T12:39:32Z</time>
      </trkpt>
      <trkpt lat="59.9724312" lon="17.7491447">
        <ele>38.5901</ele>
        <time>2012-02-26T12:39:36Z</time>
      </trkpt>
      <trkpt lat="59.9724843" lon="17.7490344">
        <ele>35.7061</ele>
        <time>2012-02-26T12:39:41Z</time>
      </trkpt>
      <trkpt lat="59.972548" lon="17.7489182">
        <ele>32.8223</ele>
        <time>2012-02-26T12:39:47Z</time>
      </trkpt>
      <trkpt lat="59.9725908" lon="17.7488071">
        <ele>32.3416</ele>
        <time>2012-02-26T12:39:52Z</time>
      </trkpt>
      <trkpt lat="59.9726675" lon="17.7486018">
        <ele>30.4188</ele>
        <time>2012-02-26T12:40:01Z</time>
      </trkpt>
      <trkpt lat="59.9727496" lon="17.7484421">
        <ele>28.4962</ele>
        <time>2012-02-26T12:40:08Z</time>
      </trkpt>
      <trkpt lat="59.9728163" lon="17.748337">
        <ele>27.5349</ele>
        <time>2012-02-26T12:40:13Z</time>
      </trkpt>
      <trkpt lat="59.9729028" lon="17.7481691">
        <ele>26.5736</ele>
        <time>2012-02-26T12:40:21Z</time>
      </trkpt>
      <trkpt lat="59.9729385" lon="17.7481083">
        <ele>27.5349</ele>
        <time>2012-02-26T12:40:24Z</time>
      </trkpt>
      <trkpt lat="59.9730319" lon="17.7479722">
        <ele>28.4962</ele>
        <time>2012-02-26T12:40:31Z</time>
      </trkpt>
      <trkpt lat="59.9731405" lon="17.7478124">
        <ele>29.9381</ele>
        <time>2012-02-26T12:40:40Z</time>
      </trkpt>
      <trkpt lat="59.9731888" lon="17.7477554">
        <ele>30.4188</ele>
        <time>2012-02-26T12:40:44Z</time>
      </trkpt>
      <trkpt lat="59.9733049" lon="17.7476148">
        <ele>32.8223</ele>
        <time>2012-02-26T12:40:53Z</time>
      </trkpt>
      <trkpt lat="59.9734248" lon="17.7474796">
        <ele>34.2642</ele>
        <time>2012-02-26T12:41:02Z</time>
      </trkpt>
      <trkpt lat="59.9735332" lon="17.7473929">
        <ele>33.7834</ele>
        <time>2012-02-26T12:41:10Z</time>
      </trkpt>
      <trkpt lat="59.9736016" lon="17.7473135">
        <ele>32.8223</ele>
        <time>2012-02-26T12:41:16Z</time>
      </trkpt>
      <trkpt lat="59.9736824" lon="17.7472054">
        <ele>32.3416</ele>
        <time>2012-02-26T12:41:24Z</time>
      </trkpt>
      <trkpt lat="59.9737071" lon="17.7471662">
        <ele>32.8223</ele>
        <time>2012-02-26T12:41:26Z</time>
      </trkpt>
      <trkpt lat="59.9737762" lon="17.7470743">
        <ele>34.2642</ele>
        <time>2012-02-26T12:41:32Z</time>
      </trkpt>
      <trkpt lat="59.9739102" lon="17.7469483">
        <ele>33.7834</ele>
        <time>2012-02-26T12:41:41Z</time>
      </trkpt>
      <trkpt lat="59.9739963" lon="17.7468556">
        <ele>33.7834</ele>
        <time>2012-02-26T12:41:47Z</time>
      </trkpt>
      <trkpt lat="59.9740904" lon="17.7467846">
        <ele>33.3029</ele>
        <time>2012-02-26T12:41:53Z</time>
      </trkpt>
      <trkpt lat="59.9742068" lon="17.7466022">
        <ele>35.2255</ele>
        <time>2012-02-26T12:42:02Z</time>
      </trkpt>
      <trkpt lat="59.9742987" lon="17.7464827">
        <ele>35.7061</ele>
        <time>2012-02-26T12:42:09Z</time>
      </trkpt>
      <trkpt lat="59.9744242" lon="17.746294">
        <ele>37.6287</ele>
        <time>2012-02-26T12:42:19Z</time>
      </trkpt>
      <trkpt lat="59.9744972" lon="17.7461538">
        <ele>38.1094</ele>
        <time>2012-02-26T12:42:26Z</time>
      </trkpt>
      <trkpt lat="59.9746013" lon="17.7459879">
        <ele>38.1094</ele>
        <time>2012-02-26T12:42:35Z</time>
      </trkpt>
      <trkpt lat="59.9746805" lon="17.7458952">
        <ele>36.1868</ele>
        <time>2012-02-26T12:42:41Z</time>
      </trkpt>
      <trkpt lat="59.9747511" lon="17.7457833">
        <ele>35.2255</ele>
        <time>2012-02-26T12:42:47Z</time>
      </trkpt>
      <trkpt lat="59.9747849" lon="17.7457285">
        <ele>33.7834</ele>
        <time>2012-02-26T12:42:50Z</time>
      </trkpt>
      <trkpt lat="59.9748379" lon="17.7455998">
        <ele>32.8223</ele>
        <time>2012-02-26T12:42:55Z</time>
      </trkpt>
      <trkpt lat="59.9748556" lon="17.7455536">
        <ele>32.3416</ele>
        <time>2012-02-26T12:42:57Z</time>
      </trkpt>
      <trkpt lat="59.974956" lon="17.7452955">
        <ele>31.3801</ele>
        <time>2012-02-26T12:43:07Z</time>
      </trkpt>
      <trkpt lat="59.9750272" lon="17.7451187">
        <ele>30.8995</ele>
        <time>2012-02-26T12:43:14Z</time>
      </trkpt>
      <trkpt lat="59.9750888" lon="17.7450009">
        <ele>28.9769</ele>
        <time>2012-02-26T12:43:20Z</time>
      </trkpt>
      <trkpt lat="59.9751105" lon="17.7449626">
        <ele>28.0155</ele>
        <time>2012-02-26T12:43:22Z</time>
      </trkpt>
      <trkpt lat="59.9751727" lon="17.7447649">
        <ele>27.0543</ele>
        <time>2012-02-26T12:43:30Z</time>
      </trkpt>
      <trkpt lat="59.9752033" lon="17.7446075">
        <ele>27.5349</ele>
        <time>2012-02-26T12:43:36Z</time>
      </trkpt>
      <trkpt lat="59.9752153" lon="17.7445551">
        <ele>27.5349</ele>
        <time>2012-02-26T12:43:38Z</time>
      </trkpt>
      <trkpt lat="59.975263" lon="17.7443152">
        <ele>28.9769</ele>
        <time>2012-02-26T12:43:46Z</time>
      </trkpt>
      <trkpt lat="59.9752938" lon="17.7441458">
        <ele>28.4962</ele>
        <time>2012-02-26T12:43:52Z</time>
      </trkpt>
      <trkpt lat="59.9752996" lon="17.7441136">
        <ele>28.4962</ele>
        <time>2012-02-26T12:43:53Z</time>
      </trkpt>
      <trkpt lat="59.9753176" lon="17.7438719">
        <ele>30.8995</ele>
        <time>2012-02-26T12:44:00Z</time>
      </trkpt>
      <trkpt lat="59.9753495" lon="17.7435818">
        <ele>33.3029</ele>
        <time>2012-02-26T12:44:09Z</time>
      </trkpt>
      <trkpt lat="59.9753857" lon="17.7433003">
        <ele>34.2642</ele>
        <time>2012-02-26T12:44:18Z</time>
      </trkpt>
      <trkpt lat="59.9753916" lon="17.7432732">
        <ele>34.2642</ele>
        <time>2012-02-26T12:44:19Z</time>
      </trkpt>
      <trkpt lat="59.9754175" lon="17.7431235">
        <ele>33.7834</ele>
        <time>2012-02-26T12:44:24Z</time>
      </trkpt>
      <trkpt lat="59.9754668" lon="17.7430043">
        <ele>31.8607</ele>
        <time>2012-02-26T12:44:30Z</time>
      </trkpt>
      <trkpt lat="59.9755188" lon="17.742836">
        <ele>30.8995</ele>
        <time>2012-02-26T12:44:37Z</time>
      </trkpt>
      <trkpt lat="59.9755872" lon="17.742637">
        <ele>30.4188</ele>
        <time>2012-02-26T12:44:45Z</time>
      </trkpt>
      <trkpt lat="59.9756524" lon="17.7424484">
        <ele>28.0155</ele>
        <time>2012-02-26T12:44:53Z</time>
      </trkpt>
      <trkpt lat="59.975716" lon="17.7422628">
        <ele>26.0929</ele>
        <time>2012-02-26T12:45:01Z</time>
      </trkpt>
      <trkpt lat="59.9757742" lon="17.7421092">
        <ele>23.6896</ele>
        <time>2012-02-26T12:45:08Z</time>
      </trkpt>
      <trkpt lat="59.9758302" lon="17.7418895">
        <ele>24.1703</ele>
        <time>2012-02-26T12:45:16Z</time>
      </trkpt>
      <trkpt lat="59.9758726" lon="17.7416916">
        <ele>24.651</ele>
        <time>2012-02-26T12:45:23Z</time>
      </trkpt>
      <trkpt lat="59.9759011" lon="17.7415805">
        <ele>24.1703</ele>
        <time>2012-02-26T12:45:27Z</time>
      </trkpt>
      <trkpt lat="59.9759495" lon="17.7413979">
        <ele>23.209</ele>
        <time>2012-02-26T12:45:34Z</time>
      </trkpt>
      <trkpt lat="59.9759979" lon="17.7412379">
        <ele>22.2476</ele>
        <time>2012-02-26T12:45:40Z</time>
      </trkpt>
      <trkpt lat="59.9760622" lon="17.7410766">
        <ele>20.8057</ele>
        <time>2012-02-26T12:45:47Z</time>
      </trkpt>
      <trkpt lat="59.9761208" lon="17.7409006">
        <ele>19.8444</ele>
        <time>2012-02-26T12:45:54Z</time>
      </trkpt>
      <trkpt lat="59.976183" lon="17.7406996">
        <ele>18.8831</ele>
        <time>2012-02-26T12:46:02Z</time>
      </trkpt>
      <trkpt lat="59.9762129" lon="17.740582">
        <ele>19.8444</ele>
        <time>2012-02-26T12:46:06Z</time>
      </trkpt>
      <trkpt lat="59.9762655" lon="17.7403399">
        <ele>22.2476</ele>
        <time>2012-02-26T12:46:14Z</time>
      </trkpt>
      <trkpt lat="59.9762961" lon="17.7402002">
        <ele>23.209</ele>
        <time>2012-02-26T12:46:19Z</time>
      </trkpt>
      <trkpt lat="59.9763208" lon="17.740069">
        <ele>23.209</ele>
        <time>2012-02-26T12:46:24Z</time>
      </trkpt>
      <trkpt lat="59.9763278" lon="17.739976">
        <ele>23.209</ele>
        <time>2012-02-26T12:46:27Z</time>
      </trkpt>
      <trkpt lat="59.9762567" lon="17.7398412">
        <ele>24.1703</ele>
        <time>2012-02-26T12:46:33Z</time>
      </trkpt>
      <trkpt lat="59.976216" lon="17.7397699">
        <ele>24.1703</ele>
        <time>2012-02-26T12:46:36Z</time>
      </trkpt>
      <trkpt lat="59.9761005" lon="17.739622">
        <ele>25.1317</ele>
        <time>2012-02-26T12:46:43Z</time>
      </trkpt>
      <trkpt lat="59.9760331" lon="17.7394117">
        <ele>21.767</ele>
        <time>2012-02-26T12:46:50Z</time>
      </trkpt>
      <trkpt lat="59.9759011" lon="17.7392206">
        <ele>22.7283</ele>
        <time>2012-02-26T12:46:59Z</time>
      </trkpt>
      <trkpt lat="59.9757685" lon="17.739036">
        <ele>22.7283</ele>
        <time>2012-02-26T12:47:09Z</time>
      </trkpt>
      <trkpt lat="59.9756598" lon="17.7389068">
        <ele>22.7283</ele>
        <time>2012-02-26T12:47:16Z</time>
      </trkpt>
      <trkpt lat="59.9755787" lon="17.7387721">
        <ele>21.767</ele>
        <time>2012-02-26T12:47:23Z</time>
      </trkpt>
      <trkpt lat="59.9755473" lon="17.7387103">
        <ele>21.2864</ele>
        <time>2012-02-26T12:47:26Z</time>
      </trkpt>
      <trkpt lat="59.9754481" lon="17.7385587">
        <ele>21.767</ele>
        <time>2012-02-26T12:47:34Z</time>
      </trkpt>
      <trkpt lat="59.9753323" lon="17.7383593">
        <ele>21.767</ele>
        <time>2012-02-26T12:47:44Z</time>
      </trkpt>
      <trkpt lat="59.9752344" lon="17.7381784">
        <ele>20.8057</ele>
        <time>2012-02-26T12:47:53Z</time>
      </trkpt>
      <trkpt lat="59.9751461" lon="17.7380183">
        <ele>20.8057</ele>
        <time>2012-02-26T12:48:01Z</time>
      </trkpt>
      <trkpt lat="59.975037" lon="17.7378235">
        <ele>20.325</ele>
        <time>2012-02-26T12:48:10Z</time>
      </trkpt>
      <trkpt lat="59.9749276" lon="17.7375998">
        <ele>20.8057</ele>
        <time>2012-02-26T12:48:20Z</time>
      </trkpt>
      <trkpt lat="59.9748363" lon="17.7374299">
        <ele>21.767</ele>
        <time>2012-02-26T12:48:28Z</time>
      </trkpt>
      <trkpt lat="59.9747475" lon="17.7372098">
        <ele>22.2476</ele>
        <time>2012-02-26T12:48:37Z</time>
      </trkpt>
      <trkpt lat="59.9746936" lon="17.7370606">
        <ele>22.2476</ele>
        <time>2012-02-26T12:48:43Z</time>
      </trkpt>
      <trkpt lat="59.9746367" lon="17.7369003">
        <ele>22.2476</ele>
        <time>2012-02-26T12:48:50Z</time>
      </trkpt>
      <trkpt lat="59.9746076" lon="17.7368228">
        <ele>22.7283</ele>
        <time>2012-02-26T12:48:53Z</time>
      </trkpt>
      <trkpt lat="59.9745765" lon="17.7367121">
        <ele>23.209</ele>
        <time>2012-02-26T12:48:57Z</time>
      </trkpt>
      <trkpt lat="59.9745426" lon="17.7365897">
        <ele>23.6896</ele>
        <time>2012-02-26T12:49:02Z</time>
      </trkpt>
      <trkpt lat="59.9744951" lon="17.7364306">
        <ele>23.6896</ele>
        <time>2012-02-26T12:49:08Z</time>
      </trkpt>
      <trkpt lat="59.9744403" lon="17.7361598">
        <ele>24.1703</ele>
        <time>2012-02-26T12:49:18Z</time>
      </trkpt>
      <trkpt lat="59.9743971" lon="17.7359375">
        <ele>24.1703</ele>
        <time>2012-02-26T12:49:26Z</time>
      </trkpt>
      <trkpt lat="59.9743526" lon="17.7357141">
        <ele>24.1703</ele>
        <time>2012-02-26T12:49:34Z</time>
      </trkpt>
      <trkpt lat="59.9743154" lon="17.7354899">
        <ele>24.651</ele>
        <time>2012-02-26T12:49:42Z</time>
      </trkpt>
      <trkpt lat="59.9743017" lon="17.7353677">
        <ele>25.1317</ele>
        <time>2012-02-26T12:49:46Z</time>
      </trkpt>
      <trkpt lat="59.9742946" lon="17.7352152">
        <ele>25.1317</ele>
        <time>2012-02-26T12:49:51Z</time>
      </trkpt>
      <trkpt lat="59.974274" lon="17.7350481">
        <ele>24.651</ele>
        <time>2012-02-26T12:49:56Z</time>
      </trkpt>
      <trkpt lat="59.9742549" lon="17.734731">
        <ele>25.1317</ele>
        <time>2012-02-26T12:50:06Z</time>
      </trkpt>
      <trkpt lat="59.9742496" lon="17.7344836">
        <ele>25.1317</ele>
        <time>2012-02-26T12:50:14Z</time>
      </trkpt>
      <trkpt lat="59.9742568" lon="17.7343571">
        <ele>25.1317</ele>
        <time>2012-02-26T12:50:18Z</time>
      </trkpt>
      <trkpt lat="59.9742678" lon="17.7340718">
        <ele>25.1317</ele>
        <time>2012-02-26T12:50:27Z</time>
      </trkpt>
      <trkpt lat="59.9742854" lon="17.7337793">
        <ele>24.1703</ele>
        <time>2012-02-26T12:50:37Z</time>
      </trkpt>
      <trkpt lat="59.9743018" lon="17.7334835">
        <ele>24.1703</ele>
        <time>2012-02-26T12:50:47Z</time>
      </trkpt>
      <trkpt lat="59.974318" lon="17.7331304">
        <ele>25.1317</ele>
        <time>2012-02-26T12:50:59Z</time>
      </trkpt>
      <trkpt lat="59.9743325" lon="17.7329591">
        <ele>24.651</ele>
        <time>2012-02-26T12:51:05Z</time>
      </trkpt>
      <trkpt lat="59.9743258" lon="17.7327681">
        <ele>24.651</ele>
        <time>2012-02-26T12:51:11Z</time>
      </trkpt>
      <trkpt lat="59.9743298" lon="17.7327387">
        <ele>24.651</ele>
        <time>2012-02-26T12:51:12Z</time>
      </trkpt>
      <trkpt lat="59.9743309" lon="17.7324912">
        <ele>24.651</ele>
        <time>2012-02-26T12:51:20Z</time>
      </trkpt>
      <trkpt lat="59.9743251" lon="17.7323654">
        <ele>24.651</ele>
        <time>2012-02-26T12:51:24Z</time>
      </trkpt>
      <trkpt lat="59.9743098" lon="17.7322125">
        <ele>25.1317</ele>
        <time>2012-02-26T12:51:29Z</time>
      </trkpt>
      <trkpt lat="59.9743005" lon="17.7318018">
        <ele>25.6123</ele>
        <time>2012-02-26T12:51:42Z</time>
      </trkpt>
      <trkpt lat="59.9743057" lon="17.7315959">
        <ele>25.1317</ele>
        <time>2012-02-26T12:51:49Z</time>
      </trkpt>
      <trkpt lat="59.9743062" lon="17.7315301">
        <ele>25.1317</ele>
        <time>2012-02-26T12:51:51Z</time>
      </trkpt>
      <trkpt lat="59.9742951" lon="17.731345">
        <ele>25.6123</ele>
        <time>2012-02-26T12:51:57Z</time>
      </trkpt>
      <trkpt lat="59.9742983" lon="17.7311379">
        <ele>26.5736</ele>
        <time>2012-02-26T12:52:03Z</time>
      </trkpt>
      <trkpt lat="59.9743071" lon="17.7308872">
        <ele>27.0543</ele>
        <time>2012-02-26T12:52:11Z</time>
      </trkpt>
      <trkpt lat="59.9743149" lon="17.7306831">
        <ele>26.5736</ele>
        <time>2012-02-26T12:52:18Z</time>
      </trkpt>
      <trkpt lat="59.9743262" lon="17.7304381">
        <ele>25.6123</ele>
        <time>2012-02-26T12:52:26Z</time>
      </trkpt>
      <trkpt lat="59.9743424" lon="17.730314">
        <ele>25.6123</ele>
        <time>2012-02-26T12:52:30Z</time>
      </trkpt>
      <trkpt lat="59.974345" lon="17.7301734">
        <ele>25.6123</ele>
        <time>2012-02-26T12:52:34Z</time>
      </trkpt>
      <trkpt lat="59.9743538" lon="17.7300427">
        <ele>26.0929</ele>
        <time>2012-02-26T12:52:38Z</time>
      </trkpt>
      <trkpt lat="59.9743851" lon="17.7297647">
        <ele>27.0543</ele>
        <time>2012-02-26T12:52:47Z</time>
      </trkpt>
      <trkpt lat="59.9744003" lon="17.7295878">
        <ele>25.6123</ele>
        <time>2012-02-26T12:52:53Z</time>
      </trkpt>
      <trkpt lat="59.9744129" lon="17.7293662">
        <ele>24.1703</ele>
        <time>2012-02-26T12:53:00Z</time>
      </trkpt>
      <trkpt lat="59.9744222" lon="17.7292296">
        <ele>23.209</ele>
        <time>2012-02-26T12:53:05Z</time>
      </trkpt>
      <trkpt lat="59.9744268" lon="17.7291993">
        <ele>23.209</ele>
        <time>2012-02-26T12:53:06Z</time>
      </trkpt>
      <trkpt lat="59.9744378" lon="17.7291068">
        <ele>24.1703</ele>
        <time>2012-02-26T12:53:10Z</time>
      </trkpt>
      <trkpt lat="59.9744289" lon="17.7288631">
        <ele>25.6123</ele>
        <time>2012-02-26T12:53:18Z</time>
      </trkpt>
      <trkpt lat="59.9744299" lon="17.7287398">
        <ele>25.6123</ele>
        <time>2012-02-26T12:53:22Z</time>
      </trkpt>
      <trkpt lat="59.9744408" lon="17.7286823">
        <ele>27.5349</ele>
        <time>2012-02-26T12:53:24Z</time>
      </trkpt>
      <trkpt lat="59.9744385" lon="17.7285637">
        <ele>28.9769</ele>
        <time>2012-02-26T12:53:28Z</time>
      </trkpt>
      <trkpt lat="59.9744335" lon="17.7283303">
        <ele>30.4188</ele>
        <time>2012-02-26T12:53:35Z</time>
      </trkpt>
      <trkpt lat="59.9744309" lon="17.7283005">
        <ele>30.4188</ele>
        <time>2012-02-26T12:53:36Z</time>
      </trkpt>
      <trkpt lat="59.9744231" lon="17.7281617">
        <ele>29.9381</ele>
        <time>2012-02-26T12:53:40Z</time>
      </trkpt>
      <trkpt lat="59.9744207" lon="17.7280228">
        <ele>28.0155</ele>
        <time>2012-02-26T12:53:45Z</time>
      </trkpt>
      <trkpt lat="59.9744119" lon="17.7279639">
        <ele>27.5349</ele>
        <time>2012-02-26T12:53:47Z</time>
      </trkpt>
      <trkpt lat="59.9744061" lon="17.727809">
        <ele>26.5736</ele>
        <time>2012-02-26T12:53:52Z</time>
      </trkpt>
      <trkpt lat="59.9744217" lon="17.7277675">
        <ele>26.0929</ele>
        <time>2012-02-26T12:53:54Z</time>
      </trkpt>
      <trkpt lat="59.9744361" lon="17.7278075">
        <ele>25.1317</ele>
        <time>2012-02-26T12:53:56Z</time>
      </trkpt>
      <trkpt lat="59.9744402" lon="17.7278374">
        <ele>25.1317</ele>
        <time>2012-02-26T12:53:57Z</time>
      </trkpt>
      <trkpt lat="59.9744485" lon="17.7280589">
        <ele>23.6896</ele>
        <time>2012-02-26T12:54:04Z</time>
      </trkpt>
      <trkpt lat="59.9744504" lon="17.7282332">
        <ele>22.7283</ele>
        <time>2012-02-26T12:54:09Z</time>
      </trkpt>
      <trkpt lat="59.974451" lon="17.7284091">
        <ele>23.6896</ele>
        <time>2012-02-26T12:54:15Z</time>
      </trkpt>
      <trkpt lat="59.974465" lon="17.7286272">
        <ele>25.6123</ele>
        <time>2012-02-26T12:54:22Z</time>
      </trkpt>
      <trkpt lat="59.9744704" lon="17.728829">
        <ele>25.1317</ele>
        <time>2012-02-26T12:54:27Z</time>
      </trkpt>
      <trkpt lat="59.9744677" lon="17.7290517">
        <ele>23.6896</ele>
        <time>2012-02-26T12:54:34Z</time>
      </trkpt>
      <trkpt lat="59.9744667" lon="17.7292599">
        <ele>22.2476</ele>
        <time>2012-02-26T12:54:41Z</time>
      </trkpt>
      <trkpt lat="59.9744516" lon="17.7295042">
        <ele>18.4023</ele>
        <time>2012-02-26T12:54:49Z</time>
      </trkpt>
      <trkpt lat="59.9744403" lon="17.72974">
        <ele>17.9218</ele>
        <time>2012-02-26T12:54:57Z</time>
      </trkpt>
      <trkpt lat="59.9744216" lon="17.7299757">
        <ele>16.4797</ele>
        <time>2012-02-26T12:55:05Z</time>
      </trkpt>
      <trkpt lat="59.9744017" lon="17.7301548">
        <ele>15.999</ele>
        <time>2012-02-26T12:55:11Z</time>
      </trkpt>
      <trkpt lat="59.9743865" lon="17.7303881">
        <ele>16.4797</ele>
        <time>2012-02-26T12:55:19Z</time>
      </trkpt>
      <trkpt lat="59.9743712" lon="17.7305773">
        <ele>16.9604</ele>
        <time>2012-02-26T12:55:25Z</time>
      </trkpt>
      <trkpt lat="59.9743487" lon="17.7308992">
        <ele>17.4412</ele>
        <time>2012-02-26T12:55:36Z</time>
      </trkpt>
      <trkpt lat="59.9743299" lon="17.7311406">
        <ele>15.5184</ele>
        <time>2012-02-26T12:55:44Z</time>
      </trkpt>
      <trkpt lat="59.9743272" lon="17.7311713">
        <ele>15.0377</ele>
        <time>2012-02-26T12:55:45Z</time>
      </trkpt>
      <trkpt lat="59.9743071" lon="17.7313908">
        <ele>13.5958</ele>
        <time>2012-02-26T12:55:52Z</time>
      </trkpt>
      <trkpt lat="59.9742912" lon="17.7316306">
        <ele>11.1925</ele>
        <time>2012-02-26T12:56:00Z</time>
      </trkpt>
      <trkpt lat="59.9742981" lon="17.7318396">
        <ele>10.7118</ele>
        <time>2012-02-26T12:56:07Z</time>
      </trkpt>
      <trkpt lat="59.9743046" lon="17.7320924">
        <ele>10.2312</ele>
        <time>2012-02-26T12:56:15Z</time>
      </trkpt>
      <trkpt lat="59.9743159" lon="17.7323052">
        <ele>11.6732</ele>
        <time>2012-02-26T12:56:22Z</time>
      </trkpt>
      <trkpt lat="59.9743272" lon="17.7324855">
        <ele>12.1538</ele>
        <time>2012-02-26T12:56:28Z</time>
      </trkpt>
      <trkpt lat="59.9743242" lon="17.7326687">
        <ele>10.7118</ele>
        <time>2012-02-26T12:56:34Z</time>
      </trkpt>
      <trkpt lat="59.9743207" lon="17.7329144">
        <ele>11.6732</ele>
        <time>2012-02-26T12:56:42Z</time>
      </trkpt>
      <trkpt lat="59.9743158" lon="17.7331396">
        <ele>11.6732</ele>
        <time>2012-02-26T12:56:49Z</time>
      </trkpt>
      <trkpt lat="59.9743185" lon="17.7333745">
        <ele>13.1151</ele>
        <time>2012-02-26T12:56:57Z</time>
      </trkpt>
      <trkpt lat="59.9743065" lon="17.7336946">
        <ele>15.0377</ele>
        <time>2012-02-26T12:57:08Z</time>
      </trkpt>
      <trkpt lat="59.9743028" lon="17.7340001">
        <ele>16.4797</ele>
        <time>2012-02-26T12:57:18Z</time>
      </trkpt>
      <trkpt lat="59.9742962" lon="17.7342813">
        <ele>17.4412</ele>
        <time>2012-02-26T12:57:27Z</time>
      </trkpt>
      <trkpt lat="59.9742945" lon="17.7345722">
        <ele>18.4023</ele>
        <time>2012-02-26T12:57:36Z</time>
      </trkpt>
      <trkpt lat="59.9743127" lon="17.7349148">
        <ele>19.3638</ele>
        <time>2012-02-26T12:57:47Z</time>
      </trkpt>
      <trkpt lat="59.9743173" lon="17.7350362">
        <ele>18.8831</ele>
        <time>2012-02-26T12:57:51Z</time>
      </trkpt>
      <trkpt lat="59.9743646" lon="17.7354485">
        <ele>19.3638</ele>
        <time>2012-02-26T12:58:05Z</time>
      </trkpt>
      <trkpt lat="59.9744086" lon="17.7357178">
        <ele>19.8444</ele>
        <time>2012-02-26T12:58:14Z</time>
      </trkpt>
      <trkpt lat="59.9744656" lon="17.7360151">
        <ele>20.325</ele>
        <time>2012-02-26T12:58:24Z</time>
      </trkpt>
      <trkpt lat="59.9745149" lon="17.7362125">
        <ele>20.8057</ele>
        <time>2012-02-26T12:58:31Z</time>
      </trkpt>
      <trkpt lat="59.9745625" lon="17.7363719">
        <ele>23.209</ele>
        <time>2012-02-26T12:58:36Z</time>
      </trkpt>
      <trkpt lat="59.9746418" lon="17.7365969">
        <ele>27.0543</ele>
        <time>2012-02-26T12:58:44Z</time>
      </trkpt>
      <trkpt lat="59.9747008" lon="17.7367472">
        <ele>30.8995</ele>
        <time>2012-02-26T12:58:49Z</time>
      </trkpt>
      <trkpt lat="59.9747453" lon="17.7368737">
        <ele>34.2642</ele>
        <time>2012-02-26T12:58:53Z</time>
      </trkpt>
      <trkpt lat="59.9747996" lon="17.7370355">
        <ele>34.7449</ele>
        <time>2012-02-26T12:58:59Z</time>
      </trkpt>
      <trkpt lat="59.974807" lon="17.7370498">
        <ele>34.2642</ele>
        <time>2012-02-26T12:59:00Z</time>
      </trkpt>
      <trkpt lat="59.9748832" lon="17.7372199">
        <ele>33.3029</ele>
        <time>2012-02-26T12:59:08Z</time>
      </trkpt>
      <trkpt lat="59.9749675" lon="17.7374085">
        <ele>33.7834</ele>
        <time>2012-02-26T12:59:16Z</time>
      </trkpt>
      <trkpt lat="59.9750521" lon="17.7375454">
        <ele>33.7834</ele>
        <time>2012-02-26T12:59:23Z</time>
      </trkpt>
      <trkpt lat="59.975122" lon="17.7376753">
        <ele>33.7834</ele>
        <time>2012-02-26T12:59:29Z</time>
      </trkpt>
      <trkpt lat="59.9752354" lon="17.7378573">
        <ele>35.2255</ele>
        <time>2012-02-26T12:59:38Z</time>
      </trkpt>
      <trkpt lat="59.9753121" lon="17.7379925">
        <ele>35.2255</ele>
        <time>2012-02-26T12:59:44Z</time>
      </trkpt>
      <trkpt lat="59.9753865" lon="17.738136">
        <ele>35.2255</ele>
        <time>2012-02-26T12:59:50Z</time>
      </trkpt>
      <trkpt lat="59.9754939" lon="17.7383016">
        <ele>37.6287</ele>
        <time>2012-02-26T12:59:58Z</time>
      </trkpt>
      <trkpt lat="59.9756052" lon="17.7384742">
        <ele>40.9934</ele>
        <time>2012-02-26T13:00:06Z</time>
      </trkpt>
      <trkpt lat="59.9756824" lon="17.7386051">
        <ele>41.474</ele>
        <time>2012-02-26T13:00:13Z</time>
      </trkpt>
      <trkpt lat="59.9757778" lon="17.7387447">
        <ele>44.358</ele>
        <time>2012-02-26T13:00:20Z</time>
      </trkpt>
      <trkpt lat="59.9758265" lon="17.7388467">
        <ele>44.8386</ele>
        <time>2012-02-26T13:00:25Z</time>
      </trkpt>
      <trkpt lat="59.9758729" lon="17.7389477">
        <ele>41.474</ele>
        <time>2012-02-26T13:00:31Z</time>
      </trkpt>
      <trkpt lat="59.9759229" lon="17.7390289">
        <ele>38.5901</ele>
        <time>2012-02-26T13:00:36Z</time>
      </trkpt>
      <trkpt lat="59.9759787" lon="17.7391351">
        <ele>36.1868</ele>
        <time>2012-02-26T13:00:42Z</time>
      </trkpt>
      <trkpt lat="59.9760444" lon="17.7392558">
        <ele>36.1868</ele>
        <time>2012-02-26T13:00:48Z</time>
      </trkpt>
      <trkpt lat="59.976132" lon="17.7393704">
        <ele>39.5513</ele>
        <time>2012-02-26T13:00:54Z</time>
      </trkpt>
      <trkpt lat="59.9762371" lon="17.7395677">
        <ele>41.474</ele>
        <time>2012-02-26T13:01:03Z</time>
      </trkpt>
      <trkpt lat="59.9763522" lon="17.7397268">
        <ele>43.8773</ele>
        <time>2012-02-26T13:01:12Z</time>
      </trkpt>
      <trkpt lat="59.9764553" lon="17.7397406">
        <ele>42.916</ele>
        <time>2012-02-26T13:01:20Z</time>
      </trkpt>
      <trkpt lat="59.976516" lon="17.739609">
        <ele>41.474</ele>
        <time>2012-02-26T13:01:26Z</time>
      </trkpt>
      <trkpt lat="59.9765893" lon="17.7394833">
        <ele>40.9934</ele>
        <time>2012-02-26T13:01:33Z</time>
      </trkpt>
      <trkpt lat="59.9766953" lon="17.7393733">
        <ele>41.9547</ele>
        <time>2012-02-26T13:01:41Z</time>
      </trkpt>
      <trkpt lat="59.9767678" lon="17.7393176">
        <ele>42.4354</ele>
        <time>2012-02-26T13:01:47Z</time>
      </trkpt>
      <trkpt lat="59.9767993" lon="17.7393367">
        <ele>40.5128</ele>
        <time>2012-02-26T13:01:53Z</time>
      </trkpt>
      <trkpt lat="59.9767921" lon="17.7394157">
        <ele>34.2642</ele>
        <time>2012-02-26T13:02:25Z</time>
      </trkpt>
      <trkpt lat="59.9767951" lon="17.7394113">
        <ele>34.2642</ele>
        <time>2012-02-26T13:02:26Z</time>
      </trkpt>
      <trkpt lat="59.976849" lon="17.739372">
        <ele>33.3029</ele>
        <time>2012-02-26T13:02:30Z</time>
      </trkpt>
      <trkpt lat="59.9769185" lon="17.7393439">
        <ele>33.7834</ele>
        <time>2012-02-26T13:02:34Z</time>
      </trkpt>
      <trkpt lat="59.9769838" lon="17.7392993">
        <ele>32.3416</ele>
        <time>2012-02-26T13:02:39Z</time>
      </trkpt>
      <trkpt lat="59.9770899" lon="17.7392305">
        <ele>33.3029</ele>
        <time>2012-02-26T13:02:46Z</time>
      </trkpt>
      <trkpt lat="59.9771816" lon="17.7391804">
        <ele>31.3801</ele>
        <time>2012-02-26T13:02:53Z</time>
      </trkpt>
      <trkpt lat="59.9772612" lon="17.7391399">
        <ele>29.9381</ele>
        <time>2012-02-26T13:02:59Z</time>
      </trkpt>
      <trkpt lat="59.9773379" lon="17.7390808">
        <ele>27.5349</ele>
        <time>2012-02-26T13:03:06Z</time>
      </trkpt>
      <trkpt lat="59.9774319" lon="17.7390161">
        <ele>28.0155</ele>
        <time>2012-02-26T13:03:12Z</time>
      </trkpt>
      <trkpt lat="59.977544" lon="17.7389846">
        <ele>29.9381</ele>
        <time>2012-02-26T13:03:19Z</time>
      </trkpt>
      <trkpt lat="59.9776577" lon="17.7389694">
        <ele>32.3416</ele>
        <time>2012-02-26T13:03:26Z</time>
      </trkpt>
      <trkpt lat="59.9777638" lon="17.7390122">
        <ele>34.2642</ele>
        <time>2012-02-26T13:03:32Z</time>
      </trkpt>
      <trkpt lat="59.9778779" lon="17.7390627">
        <ele>35.7061</ele>
        <time>2012-02-26T13:03:40Z</time>
      </trkpt>
      <trkpt lat="59.9779789" lon="17.7391114">
        <ele>37.1481</ele>
        <time>2012-02-26T13:03:47Z</time>
      </trkpt>
      <trkpt lat="59.978085" lon="17.7391697">
        <ele>39.0707</ele>
        <time>2012-02-26T13:03:54Z</time>
      </trkpt>
      <trkpt lat="59.9781565" lon="17.7391915">
        <ele>40.0321</ele>
        <time>2012-02-26T13:03:59Z</time>
      </trkpt>
      <trkpt lat="59.9781723" lon="17.7391983">
        <ele>40.0321</ele>
        <time>2012-02-26T13:04:00Z</time>
      </trkpt>
      <trkpt lat="59.9782681" lon="17.7392337">
        <ele>40.0321</ele>
        <time>2012-02-26T13:04:06Z</time>
      </trkpt>
      <trkpt lat="59.9782855" lon="17.7392363">
        <ele>40.5128</ele>
        <time>2012-02-26T13:04:07Z</time>
      </trkpt>
      <trkpt lat="59.9783703" lon="17.7392512">
        <ele>37.1481</ele>
        <time>2012-02-26T13:04:13Z</time>
      </trkpt>
      <trkpt lat="59.9783911" lon="17.7392593">
        <ele>36.6675</ele>
        <time>2012-02-26T13:04:15Z</time>
      </trkpt>
      <trkpt lat="59.9784781" lon="17.7392677">
        <ele>35.2255</ele>
        <time>2012-02-26T13:04:22Z</time>
      </trkpt>
      <trkpt lat="59.978548" lon="17.7392564">
        <ele>33.7834</ele>
        <time>2012-02-26T13:04:27Z</time>
      </trkpt>
      <trkpt lat="59.978632" lon="17.7392631">
        <ele>33.7834</ele>
        <time>2012-02-26T13:04:33Z</time>
      </trkpt>
      <trkpt lat="59.9787189" lon="17.7392645">
        <ele>34.2642</ele>
        <time>2012-02-26T13:04:39Z</time>
      </trkpt>
      <trkpt lat="59.9787304" lon="17.73926">
        <ele>33.7834</ele>
        <time>2012-02-26T13:04:40Z</time>
      </trkpt>
      <trkpt lat="59.9788454" lon="17.7393215">
        <ele>38.1094</ele>
        <time>2012-02-26T13:04:46Z</time>
      </trkpt>
      <trkpt lat="59.9789049" lon="17.739371">
        <ele>38.1094</ele>
        <time>2012-02-26T13:04:50Z</time>
      </trkpt>
      <trkpt lat="59.9789629" lon="17.739479">
        <ele>39.0707</ele>
        <time>2012-02-26T13:04:55Z</time>
      </trkpt>
      <trkpt lat="59.9789875" lon="17.7395641">
        <ele>38.5901</ele>
        <time>2012-02-26T13:04:58Z</time>
      </trkpt>
      <trkpt lat="59.9789695" lon="17.7397438">
        <ele>38.1094</ele>
        <time>2012-02-26T13:05:04Z</time>
      </trkpt>
      <trkpt lat="59.9789666" lon="17.7397691">
        <ele>38.5901</ele>
        <time>2012-02-26T13:05:05Z</time>
      </trkpt>
      <trkpt lat="59.9789631" lon="17.7398195">
        <ele>38.1094</ele>
        <time>2012-02-26T13:05:07Z</time>
      </trkpt>
      <trkpt lat="59.9789542" lon="17.7398959">
        <ele>39.0707</ele>
        <time>2012-02-26T13:05:11Z</time>
      </trkpt>
    </trkseg>
  </trk>
</gpx>